createdAt,value
2018-05-17T00:00:26.791Z,72.44
2018-05-17T00:01:33.603Z,72.45
2018-05-17T00:02:40.347Z,72.48
2018-05-17T00:03:47.067Z,72.55
2018-05-17T00:04:53.798Z,72.57
2018-05-17T00:06:00.516Z,72.60
2018-05-17T00:07:07.393Z,72.64
2018-05-17T00:08:14.495Z,72.64
2018-05-17T00:09:21.223Z,72.66
2018-05-17T00:10:27.964Z,72.68
2018-05-17T00:11:34.710Z,72.72
2018-05-17T00:12:41.411Z,72.74
2018-05-17T00:13:48.222Z,72.79
2018-05-17T00:14:55.008Z,72.78
2018-05-17T00:16:01.731Z,72.80
2018-05-17T00:17:08.475Z,72.84
2018-05-17T00:18:15.315Z,72.88
2018-05-17T00:19:22.016Z,72.93
2018-05-17T00:20:28.723Z,72.99
2018-05-17T00:21:35.474Z,73.06
2018-05-17T00:22:42.224Z,73.08
2018-05-17T00:23:49.042Z,73.10
2018-05-17T00:24:55.786Z,73.12
2018-05-17T00:26:02.528Z,73.18
2018-05-17T00:27:09.286Z,73.21
2018-05-17T00:28:16.110Z,73.23
2018-05-17T00:29:22.853Z,73.29
2018-05-17T00:30:29.589Z,73.32
2018-05-17T00:31:36.333Z,73.39
2018-05-17T00:32:43.137Z,73.45
2018-05-17T00:33:49.911Z,73.46
2018-05-17T00:34:56.667Z,73.47
2018-05-17T00:36:03.398Z,73.51
2018-05-17T00:37:10.191Z,73.52
2018-05-17T00:38:16.959Z,73.49
2018-05-17T00:39:23.740Z,73.54
2018-05-17T00:40:30.450Z,73.52
2018-05-17T00:41:37.235Z,73.54
2018-05-17T00:42:43.982Z,73.53
2018-05-17T00:43:50.755Z,73.53
2018-05-17T00:44:57.468Z,73.56
2018-05-17T00:46:04.299Z,73.63
2018-05-17T00:47:11.054Z,73.71
2018-05-17T00:48:17.826Z,73.73
2018-05-17T00:49:24.566Z,73.77
2018-05-17T00:50:31.361Z,73.81
2018-05-17T00:51:38.356Z,73.75
2018-05-17T00:52:45.147Z,73.68
2018-05-17T00:53:52.068Z,73.60
2018-05-17T00:54:58.810Z,73.55
2018-05-17T00:56:05.623Z,73.46
2018-05-17T00:57:12.376Z,73.34
2018-05-17T00:58:19.144Z,73.29
2018-05-17T00:59:25.858Z,73.26
2018-05-17T01:00:32.659Z,73.27
2018-05-17T01:01:39.398Z,73.24
2018-05-17T01:02:46.188Z,73.27
2018-05-17T01:03:52.991Z,73.24
2018-05-17T01:05:00.167Z,73.04
2018-05-17T01:06:06.909Z,72.89
2018-05-17T01:07:13.654Z,72.82
2018-05-17T01:08:20.563Z,72.79
2018-05-17T01:09:27.317Z,72.75
2018-05-17T01:10:34.048Z,72.64
2018-05-17T01:11:40.820Z,72.58
2018-05-17T01:12:47.571Z,72.52
2018-05-17T01:13:54.415Z,72.50
2018-05-17T01:15:01.532Z,72.43
2018-05-17T01:16:07.907Z,72.45
2018-05-17T01:17:14.699Z,72.41
2018-05-17T01:18:21.442Z,72.38
2018-05-17T01:19:28.198Z,72.40
2018-05-17T01:20:34.931Z,72.45
2018-05-17T01:21:41.708Z,72.46
2018-05-17T01:22:48.535Z,72.36
2018-05-17T01:23:55.283Z,72.36
2018-05-17T01:25:02.030Z,72.27
2018-05-17T01:26:08.768Z,72.26
2018-05-17T01:27:15.599Z,72.21
2018-05-17T01:28:22.495Z,72.09
2018-05-17T01:29:29.267Z,72.07
2018-05-17T01:30:36.021Z,72.08
2018-05-17T01:31:42.871Z,72.03
2018-05-17T01:32:49.599Z,72.01
2018-05-17T01:33:56.451Z,71.99
2018-05-17T01:35:03.290Z,72.00
2018-05-17T01:36:09.947Z,72.00
2018-05-17T01:37:17.011Z,72.06
2018-05-17T01:38:23.518Z,72.03
2018-05-17T01:39:30.364Z,72.04
2018-05-17T01:40:37.100Z,72.06
2018-05-17T01:41:43.947Z,72.07
2018-05-17T01:42:50.683Z,72.12
2018-05-17T01:43:57.759Z,72.08
2018-05-17T01:45:04.496Z,72.12
2018-05-17T01:46:11.232Z,72.14
2018-05-17T01:47:17.974Z,72.19
2018-05-17T01:48:24.806Z,72.20
2018-05-17T01:49:31.544Z,72.13
2018-05-17T01:50:38.599Z,72.02
2018-05-17T01:51:45.333Z,72.05
2018-05-17T01:52:52.076Z,72.04
2018-05-17T01:53:58.842Z,71.99
2018-05-17T01:55:05.687Z,71.88
2018-05-17T01:56:12.440Z,71.79
2018-05-17T01:57:19.173Z,71.68
2018-05-17T01:58:25.895Z,71.70
2018-05-17T01:59:32.642Z,71.69
2018-05-17T02:00:39.426Z,71.71
2018-05-17T02:01:46.183Z,71.69
2018-05-17T02:02:52.919Z,71.67
2018-05-17T02:03:59.730Z,71.63
2018-05-17T02:05:06.520Z,71.62
2018-05-17T02:06:13.288Z,71.53
2018-05-17T02:07:20.019Z,71.52
2018-05-17T02:08:26.767Z,71.46
2018-05-17T02:09:33.596Z,71.40
2018-05-17T02:10:40.436Z,71.42
2018-05-17T02:11:47.232Z,71.37
2018-05-17T02:12:54.009Z,71.25
2018-05-17T02:14:00.755Z,71.07
2018-05-17T02:15:07.546Z,71.10
2018-05-17T02:16:14.312Z,71.05
2018-05-17T02:17:21.082Z,71.05
2018-05-17T02:18:27.852Z,70.95
2018-05-17T02:19:34.608Z,70.78
2018-05-17T02:20:41.664Z,70.72
2018-05-17T02:21:48.936Z,70.63
2018-05-17T02:22:55.546Z,70.62
2018-05-17T02:24:02.306Z,70.54
2018-05-17T02:25:09.124Z,70.56
2018-05-17T02:26:15.886Z,70.52
2018-05-17T02:27:22.673Z,70.51
2018-05-17T02:28:29.415Z,70.47
2018-05-17T02:29:36.222Z,70.40
2018-05-17T02:30:43.035Z,70.37
2018-05-17T02:31:49.807Z,70.33
2018-05-17T02:32:56.627Z,70.23
2018-05-17T02:34:03.447Z,70.21
2018-05-17T02:35:10.228Z,70.11
2018-05-17T02:36:17.043Z,70.04
2018-05-17T02:37:23.786Z,70.01
2018-05-17T02:38:30.605Z,70.00
2018-05-17T02:39:37.500Z,69.97
2018-05-17T02:40:44.247Z,69.86
2018-05-17T02:41:51.031Z,69.91
2018-05-17T02:42:57.899Z,69.87
2018-05-17T02:44:04.751Z,69.79
2018-05-17T02:45:11.543Z,69.80
2018-05-17T02:46:18.290Z,69.88
2018-05-17T02:47:25.031Z,69.87
2018-05-17T02:48:32.458Z,69.79
2018-05-17T02:49:38.580Z,69.70
2018-05-17T02:50:45.362Z,69.62
2018-05-17T02:51:52.134Z,69.51
2018-05-17T02:52:58.929Z,69.50
2018-05-17T02:54:05.759Z,69.49
2018-05-17T02:55:12.557Z,69.55
2018-05-17T02:56:19.369Z,69.55
2018-05-17T02:57:26.199Z,69.50
2018-05-17T02:58:32.989Z,69.46
2018-05-17T02:59:39.781Z,69.43
2018-05-17T03:00:46.621Z,69.38
2018-05-17T03:01:53.328Z,69.30
2018-05-17T03:03:00.059Z,69.22
2018-05-17T03:04:06.855Z,69.06
2018-05-17T03:05:13.715Z,68.95
2018-05-17T03:06:20.487Z,68.88
2018-05-17T03:07:27.243Z,68.72
2018-05-17T03:08:34.011Z,68.58
2018-05-17T03:09:40.806Z,68.44
2018-05-17T03:10:47.568Z,68.27
2018-05-17T03:11:54.342Z,68.18
2018-05-17T03:13:01.056Z,68.07
2018-05-17T03:14:07.865Z,67.95
2018-05-17T03:15:14.599Z,67.89
2018-05-17T03:16:21.346Z,67.76
2018-05-17T03:17:28.099Z,67.69
2018-05-17T03:18:34.978Z,67.55
2018-05-17T03:19:41.811Z,67.53
2018-05-17T03:20:48.546Z,67.47
2018-05-17T03:21:55.298Z,67.42
2018-05-17T03:23:02.015Z,67.34
2018-05-17T03:24:08.770Z,67.31
2018-05-17T03:25:15.535Z,67.19
2018-05-17T03:26:22.231Z,67.07
2018-05-17T03:27:29.167Z,67.08
2018-05-17T03:28:36.155Z,66.97
2018-05-17T03:29:43.168Z,66.93
2018-05-17T03:30:49.790Z,66.93
2018-05-17T03:31:56.586Z,66.95
2018-05-17T03:33:03.355Z,66.92
2018-05-17T03:34:10.125Z,66.94
2018-05-17T03:35:16.855Z,66.93
2018-05-17T03:36:23.582Z,66.92
2018-05-17T03:37:30.311Z,66.82
2018-05-17T03:38:37.071Z,66.75
2018-05-17T03:39:43.847Z,66.69
2018-05-17T03:40:50.694Z,66.67
2018-05-17T03:41:57.723Z,66.68
2018-05-17T03:43:04.567Z,66.70
2018-05-17T03:44:11.431Z,66.69
2018-05-17T03:45:18.148Z,66.66
2018-05-17T03:46:24.900Z,66.69
2018-05-17T03:47:31.654Z,66.75
2018-05-17T03:48:38.426Z,66.74
2018-05-17T03:49:45.306Z,66.75
2018-05-17T03:50:52.046Z,66.66
2018-05-17T03:51:58.817Z,66.62
2018-05-17T03:53:05.606Z,66.55
2018-05-17T03:54:12.370Z,66.58
2018-05-17T03:55:19.183Z,66.51
2018-05-17T03:56:25.922Z,66.53
2018-05-17T03:57:32.655Z,66.59
2018-05-17T03:58:39.386Z,66.67
2018-05-17T03:59:46.239Z,66.79
2018-05-17T04:00:52.953Z,66.69
2018-05-17T04:01:59.795Z,66.60
2018-05-17T04:03:06.783Z,66.69
2018-05-17T04:04:13.727Z,66.74
2018-05-17T04:05:25.302Z,66.61
2018-05-17T04:06:32.294Z,66.53
2018-05-17T04:07:39.099Z,66.46
2018-05-17T04:08:45.923Z,66.56
2018-05-17T04:09:52.655Z,66.53
2018-05-17T04:10:59.451Z,66.57
2018-05-17T04:12:06.143Z,66.64
2018-05-17T04:13:12.865Z,66.69
2018-05-17T04:14:19.838Z,66.76
2018-05-17T04:15:26.623Z,66.71
2018-05-17T04:16:33.599Z,66.67
2018-05-17T04:17:40.345Z,66.64
2018-05-17T04:18:47.043Z,66.66
2018-05-17T04:19:53.808Z,66.68
2018-05-17T04:21:00.899Z,66.69
2018-05-17T04:22:07.756Z,66.77
2018-05-17T04:23:14.483Z,66.73
2018-05-17T04:24:21.211Z,66.78
2018-05-17T04:25:27.939Z,66.77
2018-05-17T04:26:34.630Z,66.84
2018-05-17T04:27:41.395Z,66.93
2018-05-17T04:28:48.130Z,66.98
2018-05-17T04:29:54.921Z,67.06
2018-05-17T04:31:01.624Z,67.22
2018-05-17T04:32:08.398Z,67.31
2018-05-17T04:33:15.086Z,67.42
2018-05-17T04:34:21.797Z,67.47
2018-05-17T04:35:28.579Z,67.53
2018-05-17T04:36:35.300Z,67.58
2018-05-17T04:37:42.047Z,67.69
2018-05-17T04:38:48.804Z,67.61
2018-05-17T04:39:55.663Z,67.67
2018-05-17T04:41:02.482Z,67.66
2018-05-17T04:42:09.216Z,67.75
2018-05-17T04:43:15.930Z,67.79
2018-05-17T04:44:22.688Z,67.82
2018-05-17T04:45:29.493Z,67.71
2018-05-17T04:46:36.198Z,67.71
2018-05-17T04:47:42.986Z,67.60
2018-05-17T04:48:49.837Z,67.57
2018-05-17T04:49:56.589Z,67.38
2018-05-17T04:51:03.345Z,67.24
2018-05-17T04:52:10.203Z,67.24
2018-05-17T04:53:16.906Z,67.29
2018-05-17T04:54:23.705Z,67.22
2018-05-17T04:55:30.436Z,67.08
2018-05-17T04:56:37.211Z,66.75
2018-05-17T04:57:43.999Z,66.63
2018-05-17T04:58:51.011Z,66.59
2018-05-17T04:59:57.642Z,66.53
2018-05-17T05:01:04.422Z,66.54
2018-05-17T05:02:11.356Z,66.44
2018-05-17T05:03:18.139Z,66.38
2018-05-17T05:04:25.006Z,66.38
2018-05-17T05:05:31.766Z,66.30
2018-05-17T05:06:38.507Z,66.33
2018-05-17T05:07:45.390Z,66.30
2018-05-17T05:08:52.143Z,66.16
2018-05-17T05:09:59.753Z,66.08
2018-05-17T05:11:06.067Z,66.10
2018-05-17T05:12:12.799Z,66.00
2018-05-17T05:13:19.559Z,65.97
2018-05-17T05:14:26.295Z,65.88
2018-05-17T05:15:33.324Z,65.88
2018-05-17T05:16:40.164Z,65.81
2018-05-17T05:17:46.873Z,65.72
2018-05-17T05:18:54.108Z,65.73
2018-05-17T05:20:00.871Z,65.68
2018-05-17T05:21:07.994Z,65.49
2018-05-17T05:22:14.748Z,65.47
2018-05-17T05:23:21.518Z,65.46
2018-05-17T05:24:28.343Z,65.55
2018-05-17T05:25:35.095Z,65.54
2018-05-17T05:26:42.003Z,65.33
2018-05-17T05:27:48.742Z,65.23
2018-05-17T05:28:55.507Z,65.23
2018-05-17T05:30:02.315Z,65.11
2018-05-17T05:31:09.148Z,65.14
2018-05-17T05:32:16.597Z,65.20
2018-05-17T05:33:23.383Z,65.09
2018-05-17T05:34:30.371Z,65.19
2018-05-17T05:35:37.168Z,65.06
2018-05-17T05:36:43.956Z,65.12
2018-05-17T05:37:50.722Z,65.11
2018-05-17T05:38:57.540Z,64.96
2018-05-17T05:40:04.332Z,64.91
2018-05-17T05:41:12.246Z,65.06
2018-05-17T05:42:18.150Z,65.04
2018-05-17T05:43:25.030Z,64.84
2018-05-17T05:44:31.769Z,64.89
2018-05-17T05:45:39.300Z,64.77
2018-05-17T05:46:47.659Z,64.74
2018-05-17T05:47:52.411Z,64.59
2018-05-17T05:48:59.174Z,64.52
2018-05-17T05:50:05.890Z,64.39
2018-05-17T05:51:13.559Z,64.32
2018-05-17T05:52:19.298Z,64.35
2018-05-17T05:53:26.016Z,64.46
2018-05-17T05:54:33.103Z,64.37
2018-05-17T05:55:40.187Z,64.33
2018-05-17T05:56:46.459Z,64.42
2018-05-17T05:57:53.532Z,64.29
2018-05-17T05:59:00.406Z,64.23
2018-05-17T06:00:07.230Z,64.15
2018-05-17T06:01:13.999Z,64.21
2018-05-17T06:02:20.783Z,64.25
2018-05-17T06:03:27.746Z,64.22
2018-05-17T06:04:34.575Z,64.24
2018-05-17T06:05:41.399Z,64.31
2018-05-17T06:06:48.147Z,64.38
2018-05-17T06:07:54.939Z,64.27
2018-05-17T06:09:01.718Z,64.17
2018-05-17T06:10:08.574Z,64.16
2018-05-17T06:11:15.786Z,64.35
2018-05-17T06:12:22.539Z,64.32
2018-05-17T06:13:29.258Z,64.32
2018-05-17T06:14:40.763Z,64.40
2018-05-17T06:15:43.083Z,64.14
2018-05-17T06:16:49.848Z,64.13
2018-05-17T06:17:56.619Z,64.13
2018-05-17T06:19:03.444Z,64.05
2018-05-17T06:20:10.216Z,63.92
2018-05-17T06:21:16.998Z,63.94
2018-05-17T06:22:25.161Z,63.84
2018-05-17T06:23:31.039Z,63.77
2018-05-17T06:24:38.098Z,63.66
2018-05-17T06:25:44.612Z,63.56
2018-05-17T06:26:51.437Z,63.46
2018-05-17T06:27:58.268Z,63.44
2018-05-17T06:29:05.079Z,63.57
2018-05-17T06:30:11.820Z,63.44
2018-05-17T06:31:18.640Z,63.40
2018-05-17T06:32:25.528Z,63.36
2018-05-17T06:33:32.275Z,63.24
2018-05-17T06:34:39.050Z,63.30
2018-05-17T06:35:45.904Z,63.22
2018-05-17T06:36:53.922Z,63.19
2018-05-17T06:37:59.723Z,63.29
2018-05-17T06:39:06.588Z,63.34
2018-05-17T06:40:13.605Z,63.06
2018-05-17T06:41:20.369Z,62.76
2018-05-17T06:42:27.388Z,62.84
2018-05-17T06:43:34.123Z,62.71
2018-05-17T06:44:40.843Z,62.61
2018-05-17T06:45:47.617Z,62.63
2018-05-17T06:46:54.667Z,62.63
2018-05-17T06:48:01.631Z,62.51
2018-05-17T06:49:08.386Z,62.33
2018-05-17T06:50:15.383Z,62.53
2018-05-17T06:51:22.633Z,62.38
2018-05-17T06:52:29.915Z,62.37
2018-05-17T06:53:42.060Z,62.29
2018-05-17T06:54:42.819Z,62.26
2018-05-17T06:55:49.630Z,62.27
2018-05-17T06:56:56.472Z,61.94
2018-05-17T06:58:07.027Z,61.86
2018-05-17T06:59:10.481Z,61.84
2018-05-17T07:00:17.343Z,61.85
2018-05-17T07:01:24.129Z,61.85
2018-05-17T07:02:31.011Z,61.76
2018-05-17T07:03:37.768Z,61.82
2018-05-17T07:04:44.659Z,61.89
2018-05-17T07:05:51.474Z,62.15
2018-05-17T07:06:58.254Z,62.36
2018-05-17T07:08:05.078Z,62.43
2018-05-17T07:09:12.236Z,62.53
2018-05-17T07:10:19.258Z,62.50
2018-05-17T07:11:25.974Z,62.66
2018-05-17T07:12:32.703Z,62.76
2018-05-17T07:13:39.448Z,62.69
2018-05-17T07:14:46.178Z,62.63
2018-05-17T07:15:52.935Z,62.70
2018-05-17T07:16:59.690Z,62.79
2018-05-17T07:18:06.590Z,62.95
2018-05-17T07:19:13.194Z,62.86
2018-05-17T07:20:20.086Z,63.04
2018-05-17T07:21:26.915Z,63.10
2018-05-17T07:22:35.410Z,63.07
2018-05-17T07:23:40.674Z,63.06
2018-05-17T07:24:47.592Z,62.80
2018-05-17T07:25:55.874Z,62.89
2018-05-17T07:27:01.145Z,62.78
2018-05-17T07:28:08.000Z,62.62
2018-05-17T07:29:14.776Z,62.57
2018-05-17T07:30:21.538Z,62.74
2018-05-17T07:31:28.458Z,62.88
2018-05-17T07:32:35.367Z,63.04
2018-05-17T07:33:42.249Z,62.98
2018-05-17T07:34:49.028Z,62.78
2018-05-17T07:35:55.792Z,62.79
2018-05-17T07:37:02.599Z,62.79
2018-05-17T07:38:09.390Z,62.72
2018-05-17T07:39:16.246Z,62.73
2018-05-17T07:40:23.103Z,62.71
2018-05-17T07:41:29.867Z,62.70
2018-05-17T07:42:36.782Z,62.72
2018-05-17T07:43:43.542Z,62.68
2018-05-17T07:44:50.317Z,62.55
2018-05-17T07:45:57.146Z,62.50
2018-05-17T07:47:04.199Z,62.84
2018-05-17T07:48:11.224Z,62.81
2018-05-17T07:49:18.127Z,62.69
2018-05-17T07:50:24.893Z,62.62
2018-05-17T07:51:31.809Z,62.50
2018-05-17T07:52:38.628Z,62.64
2018-05-17T07:53:45.530Z,62.45
2018-05-17T07:54:52.383Z,62.58
2018-05-17T07:55:59.210Z,62.56
2018-05-17T07:57:06.003Z,62.48
2018-05-17T07:58:12.766Z,62.36
2018-05-17T07:59:19.653Z,62.34
2018-05-17T08:00:26.479Z,62.32
2018-05-17T08:01:33.182Z,62.49
2018-05-17T08:02:39.919Z,62.23
2018-05-17T08:03:46.670Z,62.20
2018-05-17T08:04:53.384Z,62.22
2018-05-17T08:06:00.168Z,62.24
2018-05-17T08:07:06.948Z,62.17
2018-05-17T08:08:13.784Z,62.27
2018-05-17T08:09:20.986Z,62.09
2018-05-17T08:10:27.751Z,61.91
2018-05-17T08:11:34.578Z,61.71
2018-05-17T08:12:41.364Z,61.67
2018-05-17T08:13:48.103Z,61.89
2018-05-17T08:14:54.921Z,61.92
2018-05-17T08:16:03.304Z,61.81
2018-05-17T08:17:08.561Z,61.69
2018-05-17T08:18:15.310Z,61.65
2018-05-17T08:19:22.074Z,61.49
2018-05-17T08:20:28.869Z,61.33
2018-05-17T08:21:35.678Z,61.33
2018-05-17T08:22:42.443Z,61.18
2018-05-17T08:23:49.243Z,61.00
2018-05-17T08:24:56.079Z,60.89
2018-05-17T08:26:02.927Z,60.94
2018-05-17T08:27:09.757Z,60.91
2018-05-17T08:28:16.559Z,61.17
2018-05-17T08:29:23.283Z,61.21
2018-05-17T08:30:30.362Z,61.36
2018-05-17T08:31:37.149Z,61.49
2018-05-17T08:32:43.943Z,61.56
2018-05-17T08:33:50.730Z,61.43
2018-05-17T08:34:57.691Z,61.22
2018-05-17T08:36:04.653Z,61.13
2018-05-17T08:37:11.378Z,61.42
2018-05-17T08:38:18.087Z,61.35
2018-05-17T08:39:24.854Z,61.12
2018-05-17T08:40:31.711Z,61.08
2018-05-17T08:41:39.232Z,61.21
2018-05-17T08:42:45.593Z,61.45
2018-05-17T08:43:52.259Z,61.30
2018-05-17T08:44:59.000Z,61.24
2018-05-17T08:46:05.786Z,61.18
2018-05-17T08:47:12.623Z,61.26
2018-05-17T08:48:19.364Z,61.33
2018-05-17T08:49:26.163Z,61.04
2018-05-17T08:50:32.924Z,61.22
2018-05-17T08:51:39.686Z,61.38
2018-05-17T08:52:46.497Z,61.25
2018-05-17T08:53:53.243Z,61.27
2018-05-17T08:54:59.992Z,61.51
2018-05-17T08:56:06.875Z,61.44
2018-05-17T08:57:13.673Z,61.23
2018-05-17T08:58:20.430Z,61.35
2018-05-17T08:59:27.243Z,61.14
2018-05-17T09:00:34.081Z,61.13
2018-05-17T09:01:40.851Z,61.18
2018-05-17T09:02:47.572Z,61.11
2018-05-17T09:03:54.302Z,61.16
2018-05-17T09:05:01.150Z,60.95
2018-05-17T09:06:08.001Z,60.76
2018-05-17T09:07:14.784Z,60.64
2018-05-17T09:08:21.511Z,60.42
2018-05-17T09:09:28.270Z,60.48
2018-05-17T09:10:35.036Z,60.19
2018-05-17T09:11:41.788Z,60.07
2018-05-17T09:12:48.487Z,59.83
2018-05-17T09:13:55.286Z,59.64
2018-05-17T09:15:01.986Z,59.58
2018-05-17T09:16:08.816Z,59.52
2018-05-17T09:17:15.597Z,59.32
2018-05-17T09:18:22.332Z,59.31
2018-05-17T09:19:29.139Z,59.26
2018-05-17T09:20:35.923Z,59.18
2018-05-17T09:21:42.759Z,59.28
2018-05-17T09:22:49.498Z,59.32
2018-05-17T09:23:56.222Z,59.29
2018-05-17T09:25:02.946Z,59.39
2018-05-17T09:26:09.671Z,58.91
2018-05-17T09:27:16.411Z,58.67
2018-05-17T09:28:23.216Z,58.55
2018-05-17T09:29:29.967Z,58.79
2018-05-17T09:30:36.675Z,59.11
2018-05-17T09:31:43.407Z,59.56
2018-05-17T09:32:50.092Z,59.60
2018-05-17T09:33:56.855Z,59.91
2018-05-17T09:35:03.672Z,59.90
2018-05-17T09:36:10.326Z,60.14
2018-05-17T09:37:17.072Z,60.16
2018-05-17T09:38:23.887Z,60.08
2018-05-17T09:39:30.642Z,60.34
2018-05-17T09:40:37.399Z,60.32
2018-05-17T09:41:44.132Z,60.30
2018-05-17T09:42:50.904Z,60.16
2018-05-17T09:43:57.638Z,59.95
2018-05-17T09:45:04.382Z,60.04
2018-05-17T09:46:11.096Z,60.25
2018-05-17T09:47:17.816Z,60.38
2018-05-17T09:48:24.555Z,60.26
2018-05-17T09:49:31.319Z,60.20
2018-05-17T09:50:38.003Z,60.17
2018-05-17T09:51:44.734Z,60.36
2018-05-17T09:52:51.583Z,60.51
2018-05-17T09:53:58.303Z,60.73
2018-05-17T09:55:05.118Z,60.95
2018-05-17T09:56:11.831Z,60.95
2018-05-17T09:57:18.576Z,60.99
2018-05-17T09:58:25.275Z,60.90
2018-05-17T09:59:32.004Z,60.61
2018-05-17T10:00:38.719Z,60.59
2018-05-17T10:01:45.690Z,60.85
2018-05-17T10:02:52.435Z,60.66
2018-05-17T10:03:59.163Z,60.73
2018-05-17T10:05:05.945Z,60.54
2018-05-17T10:06:12.699Z,60.48
2018-05-17T10:07:19.439Z,60.50
2018-05-17T10:08:26.324Z,60.34
2018-05-17T10:09:33.046Z,60.55
2018-05-17T10:10:39.758Z,60.46
2018-05-17T10:11:46.459Z,60.49
2018-05-17T10:12:53.198Z,60.50
2018-05-17T10:13:59.991Z,60.50
2018-05-17T10:15:06.705Z,60.46
2018-05-17T10:16:13.427Z,60.46
2018-05-17T10:17:20.135Z,60.21
2018-05-17T10:18:26.862Z,60.26
2018-05-17T10:19:33.619Z,60.04
2018-05-17T10:20:40.310Z,60.30
2018-05-17T10:21:47.185Z,60.36
2018-05-17T10:22:53.867Z,60.25
2018-05-17T10:24:00.643Z,60.33
2018-05-17T10:25:07.454Z,60.31
2018-05-17T10:26:14.210Z,60.36
2018-05-17T10:27:21.015Z,60.60
2018-05-17T10:28:27.789Z,60.66
2018-05-17T10:29:34.604Z,60.72
2018-05-17T10:30:41.222Z,60.91
2018-05-17T10:31:47.990Z,60.58
2018-05-17T10:32:54.755Z,60.44
2018-05-17T10:34:01.540Z,60.31
2018-05-17T10:35:08.376Z,60.40
2018-05-17T10:36:15.123Z,60.15
2018-05-17T10:37:21.861Z,59.77
2018-05-17T10:38:28.645Z,59.51
2018-05-17T10:39:35.412Z,59.34
2018-05-17T10:40:42.218Z,59.64
2018-05-17T10:41:49.144Z,59.51
2018-05-17T10:42:56.156Z,59.56
2018-05-17T10:44:02.933Z,59.43
2018-05-17T10:45:09.831Z,59.45
2018-05-17T10:46:16.913Z,59.21
2018-05-17T10:47:23.667Z,59.01
2018-05-17T10:48:30.443Z,58.94
2018-05-17T10:49:37.191Z,58.85
2018-05-17T10:50:43.907Z,58.79
2018-05-17T10:51:50.774Z,58.83
2018-05-17T10:52:57.530Z,58.79
2018-05-17T10:54:04.326Z,58.63
2018-05-17T10:55:11.139Z,58.53
2018-05-17T10:56:17.883Z,58.47
2018-05-17T10:57:24.650Z,58.08
2018-05-17T10:58:31.550Z,57.97
2018-05-17T10:59:38.316Z,58.05
2018-05-17T11:00:45.071Z,57.73
2018-05-17T11:01:51.779Z,57.35
2018-05-17T11:02:58.538Z,57.46
2018-05-17T11:04:05.336Z,57.12
2018-05-17T11:05:12.126Z,57.19
2018-05-17T11:06:18.915Z,57.38
2018-05-17T11:07:25.628Z,57.22
2018-05-17T11:08:32.403Z,56.75
2018-05-17T11:09:39.135Z,56.50
2018-05-17T11:10:45.922Z,56.25
2018-05-17T11:11:52.683Z,55.87
2018-05-17T11:12:59.401Z,55.85
2018-05-17T11:14:06.186Z,55.51
2018-05-17T11:15:12.944Z,55.49
2018-05-17T11:16:19.615Z,55.73
2018-05-17T11:17:26.371Z,55.80
2018-05-17T11:18:33.114Z,55.83
2018-05-17T11:19:39.955Z,55.73
2018-05-17T11:20:46.700Z,55.83
2018-05-17T11:21:53.447Z,55.56
2018-05-17T11:23:00.212Z,55.58
2018-05-17T11:24:06.972Z,55.41
2018-05-17T11:25:13.678Z,55.20
2018-05-17T11:26:20.426Z,55.40
2018-05-17T11:27:27.154Z,55.29
2018-05-17T11:28:34.179Z,55.26
2018-05-17T11:29:40.871Z,55.18
2018-05-17T11:30:47.569Z,55.07
2018-05-17T11:31:54.603Z,54.78
2018-05-17T11:33:01.396Z,54.47
2018-05-17T11:34:08.155Z,54.23
2018-05-17T11:35:14.906Z,54.19
2018-05-17T11:36:21.639Z,54.27
2018-05-17T11:37:28.394Z,54.19
2018-05-17T11:38:35.218Z,53.87
2018-05-17T11:39:41.962Z,53.97
2018-05-17T11:40:48.853Z,54.24
2018-05-17T11:41:55.615Z,54.21
2018-05-17T11:43:02.347Z,54.32
2018-05-17T11:44:09.131Z,54.40
2018-05-17T11:45:15.803Z,54.47
2018-05-17T11:46:22.739Z,54.35
2018-05-17T11:47:29.449Z,54.49
2018-05-17T11:48:36.312Z,54.63
2018-05-17T11:49:43.075Z,54.56
2018-05-17T11:50:49.833Z,54.61
2018-05-17T11:51:56.730Z,54.10
2018-05-17T11:53:03.434Z,54.16
2018-05-17T11:54:10.279Z,53.83
2018-05-17T11:55:17.087Z,53.88
2018-05-17T11:56:23.824Z,53.48
2018-05-17T11:57:30.543Z,53.43
2018-05-17T11:58:37.294Z,53.72
2018-05-17T11:59:44.115Z,54.01
2018-05-17T12:00:50.836Z,54.21
2018-05-17T12:01:57.901Z,54.14
2018-05-17T12:03:04.723Z,54.21
2018-05-17T12:04:11.472Z,54.24
2018-05-17T12:05:18.230Z,54.30
2018-05-17T12:06:25.683Z,54.50
2018-05-17T12:07:32.444Z,54.66
2018-05-17T12:08:39.185Z,54.43
2018-05-17T12:09:45.988Z,54.11
2018-05-17T12:10:52.743Z,54.00
2018-05-17T12:11:59.546Z,53.60
2018-05-17T12:13:06.280Z,53.39
2018-05-17T12:14:13.915Z,53.50
2018-05-17T12:15:20.147Z,53.28
2018-05-17T12:16:26.899Z,53.26
2018-05-17T12:17:33.638Z,53.26
2018-05-17T12:18:40.438Z,53.27
2018-05-17T12:19:47.147Z,53.14
2018-05-17T12:20:56.957Z,52.91
2018-05-17T12:22:00.722Z,52.88
2018-05-17T12:23:07.563Z,53.00
2018-05-17T12:24:14.223Z,52.61
2018-05-17T12:25:20.937Z,52.65
2018-05-17T12:26:27.806Z,52.54
2018-05-17T12:27:34.542Z,52.52
2018-05-17T12:28:41.262Z,52.29
2018-05-17T12:29:47.967Z,52.22
2018-05-17T12:30:54.762Z,51.95
2018-05-17T12:32:01.502Z,52.08
2018-05-17T12:33:08.237Z,52.03
2018-05-17T12:34:14.926Z,51.61
2018-05-17T12:35:21.678Z,51.35
2018-05-17T12:36:28.433Z,51.28
2018-05-17T12:37:35.139Z,51.27
2018-05-17T12:38:41.904Z,50.99
2018-05-17T12:39:48.639Z,50.95
2018-05-17T12:40:55.507Z,50.66
2018-05-17T12:42:02.267Z,50.84
2018-05-17T12:43:09.131Z,50.96
2018-05-17T12:44:15.893Z,50.75
2018-05-17T12:45:22.608Z,50.52
2018-05-17T12:46:29.334Z,50.42
2018-05-17T12:47:36.110Z,50.29
2018-05-17T12:48:42.802Z,50.12
2018-05-17T12:49:49.584Z,50.01
2018-05-17T12:50:56.288Z,49.80
2018-05-17T12:52:03.027Z,49.60
2018-05-17T12:53:09.750Z,49.61
2018-05-17T12:54:16.432Z,49.61
2018-05-17T12:55:23.130Z,49.58
2018-05-17T12:56:29.902Z,49.46
2018-05-17T12:57:36.622Z,49.39
2018-05-17T12:58:43.410Z,49.36
2018-05-17T12:59:50.106Z,49.31
2018-05-17T13:00:56.788Z,49.21
2018-05-17T13:02:03.596Z,48.84
2018-05-17T13:03:10.346Z,48.68
2018-05-17T13:04:17.163Z,48.65
2018-05-17T13:05:23.995Z,48.69
2018-05-17T13:06:30.715Z,48.63
2018-05-17T13:07:37.451Z,48.62
2018-05-17T13:08:44.155Z,48.60
2018-05-17T13:09:51.066Z,48.54
2018-05-17T13:10:57.805Z,48.51
2018-05-17T13:12:04.550Z,48.36
2018-05-17T13:13:11.267Z,48.43
2018-05-17T13:14:17.968Z,48.32
2018-05-17T13:15:24.746Z,48.26
2018-05-17T13:16:31.459Z,48.34
2018-05-17T13:17:38.145Z,48.42
2018-05-17T13:18:44.941Z,48.48
2018-05-17T13:19:51.787Z,48.48
2018-05-17T13:20:58.476Z,48.32
2018-05-17T13:22:05.791Z,48.27
2018-05-17T13:23:12.542Z,48.24
2018-05-17T13:24:19.334Z,48.13
2018-05-17T13:25:26.079Z,48.17
2018-05-17T13:26:32.954Z,48.42
2018-05-17T13:27:39.842Z,48.48
2018-05-17T13:28:46.831Z,48.68
2018-05-17T13:29:53.571Z,48.86
2018-05-17T13:31:00.314Z,48.78
2018-05-17T13:32:07.139Z,48.58
2018-05-17T13:33:13.859Z,48.46
2018-05-17T13:34:20.604Z,48.46
2018-05-17T13:35:27.311Z,48.29
2018-05-17T13:36:34.073Z,48.09
2018-05-17T13:37:40.811Z,48.03
2018-05-17T13:38:47.899Z,47.83
2018-05-17T13:39:54.594Z,47.82
2018-05-17T13:41:01.292Z,47.95
2018-05-17T13:42:08.699Z,48.01
2018-05-17T13:43:15.039Z,48.02
2018-05-17T13:44:21.890Z,47.99
2018-05-17T13:45:28.602Z,47.92
2018-05-17T13:46:35.355Z,47.73
2018-05-17T13:47:42.157Z,47.76
2018-05-17T13:48:48.807Z,47.58
2018-05-17T13:49:55.564Z,47.58
2018-05-17T13:51:02.279Z,47.57
2018-05-17T13:52:09.013Z,47.38
2018-05-17T13:53:15.722Z,47.39
2018-05-17T13:54:22.504Z,47.30
2018-05-17T13:55:29.254Z,47.33
2018-05-17T13:56:36.003Z,47.25
2018-05-17T13:57:42.746Z,47.42
2018-05-17T13:58:49.475Z,47.31
2018-05-17T13:59:56.266Z,47.51
2018-05-17T14:01:03.026Z,47.54
2018-05-17T14:02:09.740Z,47.37
2018-05-17T14:03:16.506Z,47.13
2018-05-17T14:04:23.322Z,47.12
2018-05-17T14:05:30.045Z,47.09
2018-05-17T14:06:36.764Z,47.04
2018-05-17T14:07:43.530Z,46.99
2018-05-17T14:08:50.407Z,46.98
2018-05-17T14:09:57.186Z,47.24
2018-05-17T14:11:03.937Z,47.08
2018-05-17T14:12:10.747Z,46.84
2018-05-17T14:13:17.506Z,46.82
2018-05-17T14:14:24.235Z,46.84
2018-05-17T14:15:31.023Z,46.81
2018-05-17T14:16:37.815Z,46.52
2018-05-17T14:17:44.550Z,46.64
2018-05-17T14:18:51.270Z,46.61
2018-05-17T14:19:58.014Z,46.66